Quesnel, British Columbia

6:19 PM PDT on August 28, 2015 (GMT -0700)
Quesnel | | Change Station
CLOSE
Current Station
Airport
Location: Quesnel,
Elevation: 1788 ft
Nearby Weather Stations

Elev 1788 ft 53.03 °N, 122.51 °W | Updated 19 minutes ago

Mostly Cloudy
Mostly Cloudy
70 °F
Feels Like 70 °F
N
13
Wind Variable Wind from NNW
Gusts 23 mph

Today
High -- | Low -- °F
--% Chance of Precip.
Yesterday
High -- | Low -- °F
Precip. -- in
6:13 AM 8:08 PM
Waxing Gibbous, 99% visible
Pressure 29.65 in
Visibility 9.0 miles
Clouds Mostly Cloudy 12000 ft
Mostly Cloudy 14000 ft
Dew Point 50 °F
Humidity 49%
Rainfall 0.00 in
Snow Depth Not available.
UV 1 out of 12
Pollen Not available.
Air Quality Not available.
Flu Activity Not available.
METAR CYQZ 290100Z AUTO 34011G20KT 9SM BKN120 BKN140 21/10 A2962 RMK TS/LTNG TEMPO UNAVBL SLP038 DENSITY ALT 3200FT
Pressure 29.65 in
Visibility 9.0 miles
Clouds Mostly Cloudy 12000 ft
Mostly Cloudy 14000 ft
Dew Point 50 °F
Humidity 49%
Rainfall 0.00 in
Snow Depth Not available.
UV 1 out of 12
Pollen Not available.
Air Quality Not available.
Flu Activity Not available.
METAR CYQZ 290100Z AUTO 34011G20KT 9SM BKN120 BKN140 21/10 A2962 RMK TS/LTNG TEMPO UNAVBL SLP038 DENSITY ALT 3200FT

10-Day Weather Forecast

×

Almanac

Astronomy

Aug. 28, 2015 Rise Set
Actual Time
Civil Twilight
Nautical Twilight
Astronomical Twilight
Moon
Length of Visible Light
Length of Day
Tomorrow will be .
, % of the Moon is Illuminated

Today's Extremes

Country Highs Country Lows

Community

WunderPhotos

Upload Photos

1,850,561 photos uploaded!

WunderBlogs® & News

Nearby

Air Quality

  Air Quality AQ Index Pollutant
Not available.

Snow Depth

Station Depth Elevation

Earthquake Activity

City Distance Mag. Time & Date
Minimum magnitude displayed is 2.5.

Coastal Water Temperatures

Place Temperature

Stations

Nearby Weather Stations

Station Location Temp. Windchill Dew Point Humidity Wind Precip. Elev Updated Type